PACV METAR and TAF weather

Enter ICAO airport designator
Station Type Date Time Source
PACV METAR 2020/01/23 14:53 UTC NOAA

PACV 231453Z 00000KT 10SM CLR M12/M14 A2931 RMK AO2 SLP928 I3000 T11171139 56018


Station Type Date Time Source
PACV Decoded METAR 2020/01/23 14:53 UTC NOAA

MERLE K. SMITH AIRPORT, AK, United States (PACV) 60-30N 145-29W 13M
Jan 23, 2020 - 09:53 AM EST / 2020.01.23 1453 UTC
Wind: Calm:0
Visibility: 10 mile(s):0
Sky conditions: clear
Temperature: 10.9 F (-11.7 C)
Dew Point: 7.0 F (-13.9 C)
Relative Humidity: 83%
Pressure (altimeter): 29.31 in. Hg (992 hPa)
Pressure tendency: 0.05 inches (1.8 hPa) lower than three hours ago
ob: PACV 231453Z 00000KT 10SM CLR M12/M14 A2931 RMK AO2 SLP928 I3000 T11171139 56018
cycle: 15

Station Type Date Time Source
PACV TAF 2020/01/23 12:39 UTC NOAA

TAF PACV 231137Z 2312/2412 VRB03KT P6SM FEW002 SCT050
TEMPO 2312/2316 BKN002
FM241000 08006KT P6SM BKN080 BKN150

Example: see airport list